Oneiro — SVA3427 — position and weather

sailwx.info

Track history (hours):
 
Tides and Currents Weather Stations Pressure Air Temp Water Temp Dewpoint Dewpoint Depression Visibility Wind Speed Wind Dir Waves Ship Positions

Oneiro

Last reported at 2014-Jul-28 22:33 UTC. Time now 2014-Jul-28 22:39 UTC.
Position N 36°37' E 024°57'.

Length 53 m; draft 2.8 m.

Type: Pleasure craft. MMSI: 241024000.

Date/timePositionNaut miles runAvg speedWind from/ knotsBaromVisibWave heightAir tempDewpointWater temp
2014-Jul-28 22:33N 36°37' E 024°57'0 0.0
2014-Jul-28 21:33N 36°37' E 024°57'0 0.0
2014-Jul-28 20:33N 36°37' E 024°57'0 0.0
2014-Jul-28 19:33N 36°37' E 024°57'0 0.0
2014-Jul-28 18:33N 36°37' E 024°57'0 0.0
2014-Jul-28 17:33N 36°37' E 024°57'0 0.1
2014-Jul-28 16:33N 36°37' E 024°57'8 7.8
2014-Jul-28 15:30N 36°40' E 024°48'1110.7
2014-Jul-28 14:27N 36°38' E 024°34'1110.9
2014-Jul-28 13:27N 36°38' E 024°21'1 0.8
2014-Jul-28 12:20N 36°39' E 024°20'0 0.0
2014-Jul-28 11:33N 36°39' E 024°20'0 0.0
2014-Jul-28 10:33N 36°39' E 024°20'0 0.0
2014-Jul-28 09:33N 36°39' E 024°20'0 0.0
2014-Jul-28 08:33N 36°39' E 024°20'0 0.0
2014-Jul-28 07:32N 36°39' E 024°20'0 0.0
2014-Jul-28 06:33N 36°39' E 024°20'0 0.0
2014-Jul-28 05:33N 36°39' E 024°20'75 1.5
2014-Jul-26 03:32N 37°39' E 023°24'7 0.8
2014-Jul-25 18:32N 37°42' E 023°15'1212.5
2014-Jul-25 17:33N 37°48' E 023°29'1212.2
2014-Jul-25 16:32N 37°53' E 023°43'0 0.0
2014-Jul-25 15:32N 37°53' E 023°43'0 0.0
2014-Jul-25 14:32N 37°53' E 023°43'0 0.0
2014-Jul-25 13:32N 37°53' E 023°43'0 0.0
2014-Jul-25 12:26N 37°53' E 023°43'0 0.0
2014-Jul-25 11:29N 37°53' E 023°43'0 0.0
2014-Jul-25 10:32N 37°53' E 023°43'0 0.0
2014-Jul-25 09:32N 37°53' E 023°43'0 0.0
2014-Jul-25 08:32N 37°53' E 023°43'0 0.0
2014-Jul-25 07:32N 37°53' E 023°43'0 0.0
2014-Jul-25 06:32N 37°53' E 023°43'0 0.0
2014-Jul-25 05:32N 37°53' E 023°43'0 0.0
2014-Jul-25 04:23N 37°53' E 023°43'0 0.0
2014-Jul-25 03:32N 37°53' E 023°43'0 0.0
2014-Jul-25 02:32N 37°53' E 023°43'0 0.0
2014-Jul-25 01:32N 37°53' E 023°43'0 0.0
2014-Jul-25 00:26N 37°53' E 023°43'0 0.0
2014-Jul-24 23:32N 37°53' E 023°43'0 0.0
2014-Jul-24 22:20N 37°53' E 023°43'0 0.0
2014-Jul-24 21:32N 37°53' E 023°43'0 0.0
2014-Jul-24 20:32N 37°53' E 023°43'0 0.0
2014-Jul-24 19:26N 37°53' E 023°43'0 0.0
2014-Jul-24 18:26N 37°53' E 023°43'0 0.0
2014-Jul-24 17:33N 37°53' E 023°43'0 0.3
2014-Jul-24 16:32N 37°53' E 023°43'1010.4
2014-Jul-24 15:33N 37°47' E 023°33'18 9.1
2014-Jul-24 13:33N 37°39' E 023°12'1 1.4
2014-Jul-24 12:33N 37°39' E 023°10'0 0.0
2014-Jul-24 11:30N 37°39' E 023°10'0 0.0
2014-Jul-24 10:14N 37°39' E 023°10'0 0.0
2014-Jul-24 09:33N 37°39' E 023°10'0 0.0
2014-Jul-24 08:25N 37°39' E 023°10'1 0.0
2014-Jul-23 17:21N 37°38' E 023°10'6 6.7
2014-Jul-23 16:30N 37°42' E 023°15'0 0.0
2014-Jul-23 14:23N 37°42' E 023°15'5 6.5
2014-Jul-23 13:33N 37°45' E 023°21'1313.5
2014-Jul-23 12:33N 37°50' E 023°37'6 5.8
2014-Jul-23 11:33N 37°53' E 023°43'0 0.0
2014-Jul-23 10:33N 37°53' E 023°43'0 0.0
2014-Jul-23 09:33N 37°53' E 023°43'0 0.0
2014-Jul-23 08:33N 37°53' E 023°43'0 0.0
2014-Jul-23 07:33N 37°53' E 023°43'0 0.0
2014-Jul-23 06:33N 37°53' E 023°43'0 0.0
2014-Jul-23 05:33N 37°53' E 023°43'0 0.0
2014-Jul-23 04:33N 37°53' E 023°43'0 0.0
2014-Jul-23 03:33N 37°53' E 023°43'0 0.0
2014-Jul-23 02:33N 37°53' E 023°43'0 0.0
2014-Jul-23 01:33N 37°53' E 023°43'0 0.0
2014-Jul-23 00:33N 37°53' E 023°43'0 0.0
2014-Jul-22 23:33N 37°53' E 023°43'0 0.0
2014-Jul-22 22:33N 37°53' E 023°43'0 0.0
2014-Jul-22 21:33N 37°53' E 023°43'0 0.0
2014-Jul-22 20:33N 37°53' E 023°43'0 0.0
2014-Jul-22 19:33N 37°53' E 023°43'0 0.0
2014-Jul-22 18:32N 37°53' E 023°43'0 0.0
2014-Jul-22 17:33N 37°53' E 023°43'0 0.0
2014-Jul-22 16:33N 37°53' E 023°43'0 0.0
2014-Jul-22 15:33N 37°53' E 023°43'0 0.0
2014-Jul-22 14:33N 37°53' E 023°43'0 0.0
2014-Jul-22 13:33N 37°53' E 023°43'0 0.0
2014-Jul-22 12:33N 37°53' E 023°43'0 0.0
2014-Jul-22 11:33N 37°53' E 023°43'0 0.0
2014-Jul-22 10:33N 37°53' E 023°43'0 0.0
2014-Jul-22 09:33N 37°53' E 023°43'0 0.0
2014-Jul-22 08:33N 37°53' E 023°43'0 0.0
2014-Jul-22 07:33N 37°53' E 023°43'0 0.0
2014-Jul-22 06:33N 37°53' E 023°43'0 0.0
2014-Jul-22 05:33N 37°53' E 023°43'0 0.0
2014-Jul-22 04:33N 37°53' E 023°43'0 0.0
2014-Jul-22 03:33N 37°53' E 023°43'0 0.0
2014-Jul-22 02:33N 37°53' E 023°43'0 0.0
2014-Jul-22 01:33N 37°53' E 023°43'0 0.0
2014-Jul-22 00:33N 37°53' E 023°43'0 0.0
2014-Jul-21 23:33N 37°53' E 023°43'0 0.0
2014-Jul-21 22:33N 37°53' E 023°43'0 0.0
2014-Jul-21 21:33N 37°53' E 023°43'0 0.0
2014-Jul-21 20:33N 37°53' E 023°43'0 0.0
2014-Jul-21 20:17N 37°53' E 023°43'0 0.0
2014-Jul-21 19:33N 37°53' E 023°43'0 0.0
2014-Jul-21 18:33N 37°53' E 023°43'0 0.0
2014-Jul-21 17:33N 37°53' E 023°43'0 0.0
2014-Jul-21 16:33N 37°53' E 023°43'0 0.0
2014-Jul-21 15:33N 37°53' E 023°43'0 0.0
2014-Jul-21 14:33N 37°53' E 023°43'0 0.0
2014-Jul-21 13:33N 37°53' E 023°43'0 0.0
2014-Jul-21 12:33N 37°53' E 023°43'0 0.0
2014-Jul-21 11:33N 37°53' E 023°43'0 0.0
2014-Jul-21 10:33N 37°53' E 023°43'0 0.0
2014-Jul-21 09:33N 37°53' E 023°43'0 0.0
2014-Jul-21 08:33N 37°53' E 023°43'0 0.0
2014-Jul-21 07:33N 37°53' E 023°43'0 0.0
2014-Jul-21 06:33N 37°53' E 023°43'0 0.0
2014-Jul-21 05:32N 37°53' E 023°43'0 0.0
2014-Jul-21 04:32N 37°53' E 023°43'0 0.0
2014-Jul-21 03:33N 37°53' E 023°43'0 0.0
2014-Jul-21 02:33N 37°53' E 023°43'0 0.0
2014-Jul-21 01:33N 37°53' E 023°43'0 0.0
2014-Jul-21 00:33N 37°53' E 023°43'0 0.0
2014-Jul-20 23:33N 37°53' E 023°43'0 0.0
2014-Jul-20 22:33N 37°53' E 023°43'0 0.0
2014-Jul-20 21:33N 37°53' E 023°43'0 0.0
2014-Jul-20 20:33N 37°53' E 023°43'0 0.0
2014-Jul-20 19:33N 37°53' E 023°43'0 0.0
2014-Jul-20 18:33N 37°53' E 023°43'0 0.0
2014-Jul-20 17:33N 37°53' E 023°43'0 0.0
2014-Jul-20 16:33N 37°53' E 023°43'0 0.0
2014-Jul-20 15:33N 37°53' E 023°43'0 0.0
2014-Jul-20 14:33N 37°53' E 023°43'0 0.0
2014-Jul-20 13:32N 37°53' E 023°43'0 0.0
2014-Jul-20 12:33N 37°53' E 023°43'0 0.0
2014-Jul-20 11:33N 37°53' E 023°43'3 2.7
2014-Jul-20 10:32N 37°50' E 023°43'63 2.0
2014-Jul-19 03:31N 36°47' E 023°39'1414.0
2014-Jul-19 02:32N 36°42' E 023°55'1713.9
2014-Jul-19 01:17N 36°39' E 024°16'3 3.4
2014-Jul-19 00:22N 36°39' E 024°20'0 0.0
2014-Jul-18 23:31N 36°39' E 024°20'  
Track history (hours):
 
Tides and Currents Weather Stations Pressure Air Temp Water Temp Dewpoint Dewpoint Depression Visibility Wind Speed Wind Dir Waves Ship Positions

Oneiro

Last reported at 2014-Jul-28 22:33 UTC. Time now 2014-Jul-28 22:39 UTC.
Position N 36°37' E 024°57'.

Length 53 m; draft 2.8 m.

Type: Pleasure craft. MMSI: 241024000.

Date/timePositionNaut miles runAvg speedWind from/ knotsBaromVisibWave heightAir tempDewpointWater temp
2014-Jul-28 22:33N 36°37' E 024°57'0 0.0
2014-Jul-28 21:33N 36°37' E 024°57'0 0.0
2014-Jul-28 20:33N 36°37' E 024°57'0 0.0
2014-Jul-28 19:33N 36°37' E 024°57'0 0.0
2014-Jul-28 18:33N 36°37' E 024°57'0 0.0
2014-Jul-28 17:33N 36°37' E 024°57'0 0.1
2014-Jul-28 16:33N 36°37' E 024°57'8 7.8
2014-Jul-28 15:30N 36°40' E 024°48'1110.7
2014-Jul-28 14:27N 36°38' E 024°34'1110.9
2014-Jul-28 13:27N 36°38' E 024°21'1 0.8
2014-Jul-28 12:20N 36°39' E 024°20'0 0.0
2014-Jul-28 11:33N 36°39' E 024°20'0 0.0
2014-Jul-28 10:33N 36°39' E 024°20'0 0.0
2014-Jul-28 09:33N 36°39' E 024°20'0 0.0
2014-Jul-28 08:33N 36°39' E 024°20'0 0.0
2014-Jul-28 07:32N 36°39' E 024°20'0 0.0
2014-Jul-28 06:33N 36°39' E 024°20'0 0.0
2014-Jul-28 05:33N 36°39' E 024°20'75 1.5
2014-Jul-26 03:32N 37°39' E 023°24'7 0.8
2014-Jul-25 18:32N 37°42' E 023°15'1212.5
2014-Jul-25 17:33N 37°48' E 023°29'1212.2
2014-Jul-25 16:32N 37°53' E 023°43'0 0.0
2014-Jul-25 15:32N 37°53' E 023°43'0 0.0
2014-Jul-25 14:32N 37°53' E 023°43'0 0.0
2014-Jul-25 13:32N 37°53' E 023°43'0 0.0
2014-Jul-25 12:26N 37°53' E 023°43'0 0.0
2014-Jul-25 11:29N 37°53' E 023°43'0 0.0
2014-Jul-25 10:32N 37°53' E 023°43'0 0.0
2014-Jul-25 09:32N 37°53' E 023°43'0 0.0
2014-Jul-25 08:32N 37°53' E 023°43'0 0.0
2014-Jul-25 07:32N 37°53' E 023°43'0 0.0
2014-Jul-25 06:32N 37°53' E 023°43'0 0.0
2014-Jul-25 05:32N 37°53' E 023°43'0 0.0
2014-Jul-25 04:23N 37°53' E 023°43'0 0.0
2014-Jul-25 03:32N 37°53' E 023°43'0 0.0
2014-Jul-25 02:32N 37°53' E 023°43'0 0.0
2014-Jul-25 01:32N 37°53' E 023°43'0 0.0
2014-Jul-25 00:26N 37°53' E 023°43'0 0.0
2014-Jul-24 23:32N 37°53' E 023°43'0 0.0
2014-Jul-24 22:20N 37°53' E 023°43'0 0.0
2014-Jul-24 21:32N 37°53' E 023°43'0 0.0
2014-Jul-24 20:32N 37°53' E 023°43'0 0.0
2014-Jul-24 19:26N 37°53' E 023°43'0 0.0
2014-Jul-24 18:26N 37°53' E 023°43'0 0.0
2014-Jul-24 17:33N 37°53' E 023°43'0 0.3
2014-Jul-24 16:32N 37°53' E 023°43'1010.4
2014-Jul-24 15:33N 37°47' E 023°33'18 9.1
2014-Jul-24 13:33N 37°39' E 023°12'1 1.4
2014-Jul-24 12:33N 37°39' E 023°10'0 0.0
2014-Jul-24 11:30N 37°39' E 023°10'0 0.0
2014-Jul-24 10:14N 37°39' E 023°10'0 0.0
2014-Jul-24 09:33N 37°39' E 023°10'0 0.0
2014-Jul-24 08:25N 37°39' E 023°10'1 0.0
2014-Jul-23 17:21N 37°38' E 023°10'6 6.7
2014-Jul-23 16:30N 37°42' E 023°15'0 0.0
2014-Jul-23 14:23N 37°42' E 023°15'5 6.5
2014-Jul-23 13:33N 37°45' E 023°21'1313.5
2014-Jul-23 12:33N 37°50' E 023°37'6 5.8
2014-Jul-23 11:33N 37°53' E 023°43'0 0.0
2014-Jul-23 10:33N 37°53' E 023°43'0 0.0
2014-Jul-23 09:33N 37°53' E 023°43'0 0.0
2014-Jul-23 08:33N 37°53' E 023°43'0 0.0
2014-Jul-23 07:33N 37°53' E 023°43'0 0.0
2014-Jul-23 06:33N 37°53' E 023°43'0 0.0
2014-Jul-23 05:33N 37°53' E 023°43'0 0.0
2014-Jul-23 04:33N 37°53' E 023°43'0 0.0
2014-Jul-23 03:33N 37°53' E 023°43'0 0.0
2014-Jul-23 02:33N 37°53' E 023°43'0 0.0
2014-Jul-23 01:33N 37°53' E 023°43'0 0.0
2014-Jul-23 00:33N 37°53' E 023°43'0 0.0
2014-Jul-22 23:33N 37°53' E 023°43'0 0.0
2014-Jul-22 22:33N 37°53' E 023°43'0 0.0
2014-Jul-22 21:33N 37°53' E 023°43'0 0.0
2014-Jul-22 20:33N 37°53' E 023°43'0 0.0
2014-Jul-22 19:33N 37°53' E 023°43'0 0.0
2014-Jul-22 18:32N 37°53' E 023°43'0 0.0
2014-Jul-22 17:33N 37°53' E 023°43'0 0.0
2014-Jul-22 16:33N 37°53' E 023°43'0 0.0
2014-Jul-22 15:33N 37°53' E 023°43'0 0.0
2014-Jul-22 14:33N 37°53' E 023°43'0 0.0
2014-Jul-22 13:33N 37°53' E 023°43'0 0.0
2014-Jul-22 12:33N 37°53' E 023°43'0 0.0
2014-Jul-22 11:33N 37°53' E 023°43'0 0.0
2014-Jul-22 10:33N 37°53' E 023°43'0 0.0
2014-Jul-22 09:33N 37°53' E 023°43'0 0.0
2014-Jul-22 08:33N 37°53' E 023°43'0 0.0
2014-Jul-22 07:33N 37°53' E 023°43'0 0.0
2014-Jul-22 06:33N 37°53' E 023°43'0 0.0
2014-Jul-22 05:33N 37°53' E 023°43'0 0.0
2014-Jul-22 04:33N 37°53' E 023°43'0 0.0
2014-Jul-22 03:33N 37°53' E 023°43'0 0.0
2014-Jul-22 02:33N 37°53' E 023°43'0 0.0
2014-Jul-22 01:33N 37°53' E 023°43'0 0.0
2014-Jul-22 00:33N 37°53' E 023°43'0 0.0
2014-Jul-21 23:33N 37°53' E 023°43'0 0.0
2014-Jul-21 22:33N 37°53' E 023°43'0 0.0
2014-Jul-21 21:33N 37°53' E 023°43'0 0.0
2014-Jul-21 20:33N 37°53' E 023°43'0 0.0
2014-Jul-21 20:17N 37°53' E 023°43'0 0.0
2014-Jul-21 19:33N 37°53' E 023°43'0 0.0
2014-Jul-21 18:33N 37°53' E 023°43'0 0.0
2014-Jul-21 17:33N 37°53' E 023°43'0 0.0
2014-Jul-21 16:33N 37°53' E 023°43'0 0.0
2014-Jul-21 15:33N 37°53' E 023°43'0 0.0
2014-Jul-21 14:33N 37°53' E 023°43'0 0.0
2014-Jul-21 13:33N 37°53' E 023°43'0 0.0
2014-Jul-21 12:33N 37°53' E 023°43'0 0.0
2014-Jul-21 11:33N 37°53' E 023°43'0 0.0
2014-Jul-21 10:33N 37°53' E 023°43'0 0.0
2014-Jul-21 09:33N 37°53' E 023°43'0 0.0
2014-Jul-21 08:33N 37°53' E 023°43'0 0.0
2014-Jul-21 07:33N 37°53' E 023°43'0 0.0
2014-Jul-21 06:33N 37°53' E 023°43'0 0.0
2014-Jul-21 05:32N 37°53' E 023°43'0 0.0
2014-Jul-21 04:32N 37°53' E 023°43'0 0.0
2014-Jul-21 03:33N 37°53' E 023°43'0 0.0
2014-Jul-21 02:33N 37°53' E 023°43'0 0.0
2014-Jul-21 01:33N 37°53' E 023°43'0 0.0
2014-Jul-21 00:33N 37°53' E 023°43'0 0.0
2014-Jul-20 23:33N 37°53' E 023°43'0 0.0
2014-Jul-20 22:33N 37°53' E 023°43'0 0.0
2014-Jul-20 21:33N 37°53' E 023°43'0 0.0
2014-Jul-20 20:33N 37°53' E 023°43'0 0.0
2014-Jul-20 19:33N 37°53' E 023°43'0 0.0
2014-Jul-20 18:33N 37°53' E 023°43'0 0.0
2014-Jul-20 17:33N 37°53' E 023°43'0 0.0
2014-Jul-20 16:33N 37°53' E 023°43'0 0.0
2014-Jul-20 15:33N 37°53' E 023°43'0 0.0
2014-Jul-20 14:33N 37°53' E 023°43'0 0.0
2014-Jul-20 13:32N 37°53' E 023°43'0 0.0
2014-Jul-20 12:33N 37°53' E 023°43'0 0.0
2014-Jul-20 11:33N 37°53' E 023°43'3 2.7
2014-Jul-20 10:32N 37°50' E 023°43'63 2.0
2014-Jul-19 03:31N 36°47' E 023°39'1414.0
2014-Jul-19 02:32N 36°42' E 023°55'1713.9
2014-Jul-19 01:17N 36°39' E 024°16'3 3.4
2014-Jul-19 00:22N 36°39' E 024°20'0 0.0
2014-Jul-18 23:31N 36°39' E 024°20'  

Dump ship's entire track history